LSGG/GVA METAR and TAF weather

Enter ICAO airport designator
Station Type Date Time Source
LSGG METAR 2019/12/13 16:50 UTC NOAA

LSGG 131650Z 24004KT 190V300 9999 -RA FEW025 BKN050 04/01 Q0997 NOSIG


Station Type Date Time Source
LSGG Decoded METAR 2019/12/13 16:50 UTC NOAA

Geneve-Cointrin, Switzerland (LSGG) 46-15N 006-08E 416M
Dec 13, 2019 - 11:50 AM EST / 2019.12.13 1650 UTC
Wind: from the WSW (240 degrees) at 5 MPH (4 KT) (direction variable):0
Visibility: greater than 7 mile(s):0
Sky conditions: mostly cloudy
Weather: light rain
Temperature: 39 F (4 C)
Dew Point: 33 F (1 C)
Relative Humidity: 80%
Pressure (altimeter): 29.44 in. Hg (0997 hPa)
ob: LSGG 131650Z 24004KT 190V300 9999 -RA FEW025 BKN050 04/01 Q0997 NOSIG
cycle: 17

Station Type Date Time Source
LSGG TAF 2019/12/13 15:37 UTC NOAA

TAF LSGG 131425Z 1315/1421 24008KT 9999 FEW020 BKN035 TX05/1315Z TN02/1403Z TX09/1409Z
TEMPO 1315/1409 23015G25KT 4000 SHRAGS FEW010TCU

Example: see airport list